Jose de San Martin, Argentina
Current Conditions -  °F | °C
As of 10:00 PM on Friday 19 Dec 2014 (Local Time) from SCAP Reporting Station
Clear Clear  
Wind Chill: 36°   Ceiling: Unl
Heat Index: 41°   Visibility: NA
Dew Point: 36°   Wind: 7mph
Humidity: 81%   Direction: 230°SW
Pressure: 29.94"   Gusts: NA
Location:  44.03°S, 70.48°W
Report Text: SCAP 200100Z AUTO 23006KT 160V280 //// // NSC 05/02 Q1014
Loading
Personal Weather Stations






























Interactive Weather Map New forecast layout! Learn more

10-Day Weather Forecast

Advertisements
Track Severe Weather on mobile